Time;durP1;ratioP1;P1;durP2;ratioP2;P2;SDS_P1;SDS_P2;PMS_P1;PMS_P2;Temp;Humidity;BMP_temperature;BMP_pressure;BME280_temperature;BME280_humidity;BME280_pressure;Samples;Min_cycle;Max_cycle;Signal;HPM_P1;HPM_P2
2022/12/08 00:01:59;;;;;;;2.97;1.30;;;;;;;;;;5118975;27;20031;-72
2022/12/08 00:04:25;;;;;;;6.95;1.73;;;;;;;;;;5126069;27;20051;-71
2022/12/08 00:09:37;;;;;;;2.70;1.05;;;;;;;;;;5128691;27;20458;-73
2022/12/08 00:12:15;;;;;;;3.90;1.45;;;;;;;;;;5101763;28;20410;-72
2022/12/08 00:14:42;;;;;;;3.25;0.90;;;;;;;;;;5122197;27;20167;-72
2022/12/08 00:17:09;;;;;;;0.98;0.70;;;;;;;;;;5123149;27;20389;-72
2022/12/08 00:19:37;;;;;;;5.93;0.75;;;;;;;;;;5121199;27;20039;-72
2022/12/08 00:22:04;;;;;;;6.00;1.27;;;;;;;;;;5123295;27;20080;-72
2022/12/08 00:24:32;;;;;;;5.68;0.70;;;;;;;;;;5105784;28;20115;-72
2022/12/08 00:26:58;;;;;;;1.38;0.80;;;;;;;;;;5108541;28;20036;-72
2022/12/08 00:29:24;;;;;;;2.55;0.85;;;;;;;;;;5124724;28;20049;-72
2022/12/08 00:31:50;;;;;;;4.18;0.77;;;;;;;;;;5114630;28;20416;-72
2022/12/08 00:34:16;;;;;;;5.47;0.93;;;;;;;;;;5120920;28;20088;-72
2022/12/08 00:36:43;;;;;;;5.57;0.90;;;;;;;;;;5127615;28;20131;-72
2022/12/08 00:39:10;;;;;;;2.33;0.82;;;;;;;;;;5110441;28;20051;-73
2022/12/08 00:44:21;;;;;;;3.38;0.85;;;;;;;;;;5126346;28;20036;-73
2022/12/08 00:46:47;;;;;;;2.63;0.85;;;;;;;;;;5107656;28;20043;-73
2022/12/08 00:49:14;;;;;;;4.45;1.10;;;;;;;;;;5123917;28;20080;-73
2022/12/08 00:51:40;;;;;;;1.95;0.80;;;;;;;;;;5126892;28;20046;-72
2022/12/08 00:54:07;;;;;;;2.80;0.95;;;;;;;;;;5118655;28;20503;-73
2022/12/08 00:56:33;;;;;;;3.20;1.10;;;;;;;;;;5125186;28;20046;-73
2022/12/08 00:59:00;;;;;;;6.57;0.95;;;;;;;;;;5123300;28;20118;-73
2022/12/08 01:01:26;;;;;;;2.90;1.17;;;;;;;;;;5105949;28;20031;-73
2022/12/08 01:03:52;;;;;;;3.45;1.08;;;;;;;;;;5126638;28;20039;-73
2022/12/08 01:06:19;;;;;;;3.35;1.10;;;;;;;;;;5121027;28;20337;-73
2022/12/08 01:08:45;;;;;;;5.13;1.15;;;;;;;;;;5107994;28;20104;-73
2022/12/08 01:11:17;;;;;;;1.67;0.90;;;;;;;;;;5110217;28;20403;-73
2022/12/08 01:13:44;;;;;;;1.85;1.00;;;;;;;;;;5118081;28;20054;-73
2022/12/08 01:16:10;;;;;;;2.35;0.88;;;;;;;;;;5110034;28;20044;-73
2022/12/08 01:18:37;;;;;;;2.92;0.80;;;;;;;;;;5108193;28;20043;-72
2022/12/08 01:21:07;;;;;;;1.67;0.88;;;;;;;;;;5110490;28;20415;-73
2022/12/08 01:23:34;;;;;;;1.20;0.68;;;;;;;;;;5126677;28;20079;-73
2022/12/08 01:26:03;;;;;;;0.98;0.60;;;;;;;;;;5121510;28;20047;-72
2022/12/08 01:28:30;;;;;;;1.25;0.52;;;;;;;;;;5109699;28;20054;-73
2022/12/08 01:30:57;;;;;;;0.68;0.50;;;;;;;;;;5104507;28;20435;-73
2022/12/08 01:33:23;;;;;;;2.22;0.82;;;;;;;;;;5127640;27;20043;-72
2022/12/08 01:35:50;;;;;;;2.10;0.63;;;;;;;;;;5122202;27;20393;-72
2022/12/08 01:38:16;;;;;;;2.92;0.50;;;;;;;;;;5131215;27;20051;-73
2022/12/08 01:40:42;;;;;;;3.83;0.93;;;;;;;;;;5125170;27;20043;-72
2022/12/08 01:43:18;;;;;;;1.65;0.60;;;;;;;;;;5126876;27;20094;-70
2022/12/08 01:45:45;;;;;;;2.50;0.70;;;;;;;;;;5131149;27;20039;-72
2022/12/08 01:48:14;;;;;;;2.03;0.73;;;;;;;;;;5113535;27;20039;-72
2022/12/08 01:50:41;;;;;;;1.65;0.75;;;;;;;;;;5131091;27;20039;-72
2022/12/08 01:53:14;;;;;;;1.90;0.90;;;;;;;;;;5128192;27;20035;-72
2022/12/08 01:55:46;;;;;;;1.33;0.70;;;;;;;;;;5126638;27;20031;-72
2022/12/08 01:58:25;;;;;;;1.70;0.63;;;;;;;;;;5108293;28;20472;-73
2022/12/08 02:00:51;;;;;;;2.75;1.35;;;;;;;;;;5121801;27;20039;-72
2022/12/08 02:03:28;;;;;;;1.70;1.05;;;;;;;;;;5109193;27;20122;-72
2022/12/08 02:05:55;;;;;;;2.10;1.15;;;;;;;;;;5104507;27;20036;-71
2022/12/08 02:08:21;;;;;;;0.98;0.70;;;;;;;;;;5123716;27;20035;-72
2022/12/08 02:10:48;;;;;;;2.03;0.80;;;;;;;;;;5126060;27;20039;-72
2022/12/08 02:13:16;;;;;;;1.60;0.80;;;;;;;;;;5123783;27;20599;-72
2022/12/08 02:15:52;;;;;;;1.52;0.70;;;;;;;;;;5130045;27;20150;-73
2022/12/08 02:18:30;;;;;;;4.32;1.50;;;;;;;;;;5124155;27;20038;-73
2022/12/08 02:21:15;;;;;;;1.27;0.60;;;;;;;;;;5113955;27;20115;-78
2022/12/08 02:23:59;;;;;;;1.48;0.70;;;;;;;;;;5114134;27;20054;-73
2022/12/08 02:26:37;;;;;;;2.20;0.85;;;;;;;;;;5119051;27;20467;-73
2022/12/08 02:29:18;;;;;;;3.65;0.85;;;;;;;;;;5100273;27;20039;-73
2022/12/08 02:31:57;;;;;;;1.98;1.15;;;;;;;;;;5121111;27;20041;-73
2022/12/08 02:34:28;;;;;;;1.75;0.55;;;;;;;;;;5120451;27;20047;-73
2022/12/08 02:37:09;;;;;;;3.30;0.80;;;;;;;;;;5109090;27;20050;-72
2022/12/08 02:39:38;;;;;;;1.20;0.75;;;;;;;;;;5117422;27;20052;-73
2022/12/08 02:42:15;;;;;;;3.20;0.82;;;;;;;;;;5121406;27;20167;-73
2022/12/08 02:45:01;;;;;;;3.92;0.65;;;;;;;;;;5090583;27;20040;-73
2022/12/08 02:47:27;;;;;;;1.45;0.68;;;;;;;;;;5092761;27;20317;-73
2022/12/08 02:49:57;;;;;;;1.08;0.43;;;;;;;;;;5113427;27;20093;-72
2022/12/08 02:52:23;;;;;;;2.03;0.45;;;;;;;;;;5123222;27;20535;-72
2022/12/08 02:54:54;;;;;;;0.30;0.28;;;;;;;;;;5107212;27;20043;-72
2022/12/08 02:57:23;;;;;;;1.63;0.40;;;;;;;;;;5118993;27;20031;-73
2022/12/08 02:59:55;;;;;;;0.30;0.30;;;;;;;;;;5111229;27;20042;-73
2022/12/08 03:02:29;;;;;;;1.60;0.40;;;;;;;;;;5118975;27;20119;-72
2022/12/08 03:05:15;;;;;;;0.70;0.40;;;;;;;;;;5121457;27;20368;-72
2022/12/08 03:07:49;;;;;;;0.55;0.40;;;;;;;;;;5083823;27;20051;-72
2022/12/08 03:10:18;;;;;;;0.60;0.30;;;;;;;;;;5108924;27;20099;-72
2022/12/08 03:12:56;;;;;;;0.90;0.30;;;;;;;;;;5124600;27;20042;-72
2022/12/08 03:15:22;;;;;;;0.82;0.40;;;;;;;;;;5120119;27;20047;-72
2022/12/08 03:17:51;;;;;;;0.17;0.17;;;;;;;;;;5122889;27;20575;-72
2022/12/08 03:20:22;;;;;;;1.42;0.52;;;;;;;;;;5128725;27;20039;-72
2022/12/08 03:22:49;;;;;;;1.45;1.17;;;;;;;;;;5113042;27;20657;-71
2022/12/08 03:25:18;;;;;;;1.33;0.63;;;;;;;;;;5109850;27;20057;-72
2022/12/08 03:27:44;;;;;;;0.93;0.65;;;;;;;;;;5107343;27;20504;-72
2022/12/08 03:30:11;;;;;;;0.77;0.40;;;;;;;;;;5124269;27;20512;-71
2022/12/08 03:32:41;;;;;;;3.90;0.80;;;;;;;;;;5123616;27;20091;-72
2022/12/08 03:35:09;;;;;;;2.95;0.52;;;;;;;;;;5111504;27;20047;-72
2022/12/08 03:37:36;;;;;;;2.58;0.93;;;;;;;;;;5121461;27;20038;-72
2022/12/08 03:40:02;;;;;;;2.28;0.55;;;;;;;;;;5100795;27;20524;-72
2022/12/08 03:42:29;;;;;;;1.40;0.65;;;;;;;;;;5126789;27;20043;-72
2022/12/08 03:44:55;;;;;;;3.80;1.25;;;;;;;;;;5108947;27;20070;-72
2022/12/08 03:47:21;;;;;;;2.20;0.57;;;;;;;;;;5108552;28;20039;-72
2022/12/08 03:49:47;;;;;;;0.80;0.40;;;;;;;;;;5109400;27;20035;-72
2022/12/08 03:52:13;;;;;;;1.35;0.40;;;;;;;;;;5105660;27;20040;-72
2022/12/08 03:54:39;;;;;;;1.55;0.40;;;;;;;;;;5121123;27;20043;-71
2022/12/08 03:57:05;;;;;;;5.50;1.10;;;;;;;;;;5126929;27;20492;-72
2022/12/08 03:59:31;;;;;;;0.75;0.50;;;;;;;;;;5121154;27;20477;-72
2022/12/08 04:01:57;;;;;;;1.95;0.45;;;;;;;;;;5126494;27;20034;-72
2022/12/08 04:04:24;;;;;;;1.50;0.65;;;;;;;;;;5108437;27;20046;-72
2022/12/08 04:06:50;;;;;;;1.23;0.43;;;;;;;;;;5120750;27;20085;-72
2022/12/08 04:09:16;;;;;;;1.23;0.50;;;;;;;;;;5120494;27;20108;-72
2022/12/08 04:11:42;;;;;;;0.80;0.43;;;;;;;;;;5122679;27;20130;-72
2022/12/08 04:14:08;;;;;;;2.35;0.40;;;;;;;;;;5121211;27;20042;-71
2022/12/08 04:16:35;;;;;;;2.55;0.60;;;;;;;;;;5105580;28;20078;-72
2022/12/08 04:19:01;;;;;;;1.38;0.50;;;;;;;;;;5107235;27;20031;-72
2022/12/08 04:21:27;;;;;;;1.35;0.50;;;;;;;;;;5112557;27;20027;-72
2022/12/08 04:23:54;;;;;;;5.25;0.88;;;;;;;;;;5103914;28;20042;-72
2022/12/08 04:26:20;;;;;;;1.85;0.93;;;;;;;;;;5126331;28;20047;-72
2022/12/08 04:28:46;;;;;;;0.63;0.57;;;;;;;;;;5121245;28;20099;-72
2022/12/08 04:31:12;;;;;;;0.75;0.75;;;;;;;;;;5094270;28;20035;-72
2022/12/08 04:33:38;;;;;;;1.23;0.60;;;;;;;;;;5116968;28;20050;-72
2022/12/08 04:36:05;;;;;;;2.35;0.60;;;;;;;;;;5116339;28;20132;-70
2022/12/08 04:38:32;;;;;;;0.70;0.35;;;;;;;;;;5123898;28;20046;-72
2022/12/08 04:40:58;;;;;;;2.08;0.50;;;;;;;;;;5111096;28;20046;-72
2022/12/08 04:43:24;;;;;;;2.75;0.55;;;;;;;;;;5118044;28;20035;-72
2022/12/08 04:45:50;;;;;;;1.45;0.70;;;;;;;;;;5111464;28;20372;-72
2022/12/08 04:48:17;;;;;;;1.42;0.63;;;;;;;;;;5121862;28;20044;-72
2022/12/08 04:50:43;;;;;;;3.03;0.75;;;;;;;;;;5120823;28;20055;-73
2022/12/08 04:53:10;;;;;;;1.67;0.50;;;;;;;;;;5126467;28;20488;-72
2022/12/08 04:55:43;;;;;;;2.15;0.73;;;;;;;;;;5115802;28;20477;-72
2022/12/08 04:58:09;;;;;;;;;;;;;;;;;;5120070;28;20039;-72
2022/12/08 05:00:35;;;;;;;2.63;1.15;;;;;;;;;;5102713;28;19966;-72
2022/12/08 05:03:02;;;;;;;0.65;0.50;;;;;;;;;;5129140;28;20526;-72
2022/12/08 05:05:28;;;;;;;1.73;0.70;;;;;;;;;;5124509;27;20027;-72
2022/12/08 05:07:54;;;;;;;0.85;0.65;;;;;;;;;;5114470;27;20039;-72
2022/12/08 05:10:20;;;;;;;0.77;0.55;;;;;;;;;;5127628;27;20035;-72
2022/12/08 05:12:46;;;;;;;0.98;0.65;;;;;;;;;;5123862;27;20493;-72
2022/12/08 05:15:12;;;;;;;2.67;0.63;;;;;;;;;;5126685;27;20038;-72
2022/12/08 05:17:38;;;;;;;0.95;0.60;;;;;;;;;;5112849;27;20112;-72
2022/12/08 05:20:05;;;;;;;1.25;0.80;;;;;;;;;;5122769;27;20031;-72
2022/12/08 05:22:31;;;;;;;0.90;0.60;;;;;;;;;;5119803;27;20042;-73
2022/12/08 05:24:57;;;;;;;2.45;0.73;;;;;;;;;;5094297;27;20074;-72
2022/12/08 05:27:23;;;;;;;1.27;0.80;;;;;;;;;;5110938;27;20035;-72
2022/12/08 05:29:50;;;;;;;2.95;1.20;;;;;;;;;;5109332;27;20047;-72
2022/12/08 05:32:16;;;;;;;2.65;1.50;;;;;;;;;;5122217;27;20047;-71
2022/12/08 05:34:42;;;;;;;1.67;0.70;;;;;;;;;;5111201;27;20434;-72
2022/12/08 05:37:08;;;;;;;1.55;0.57;;;;;;;;;;5123957;27;20087;-72
2022/12/08 05:39:34;;;;;;;1.73;0.80;;;;;;;;;;5108161;27;20086;-72
2022/12/08 05:42:00;;;;;;;3.10;1.10;;;;;;;;;;5112440;27;20035;-72
2022/12/08 05:44:27;;;;;;;3.50;1.00;;;;;;;;;;5123288;27;20472;-72
2022/12/08 05:46:53;;;;;;;2.33;1.25;;;;;;;;;;5126517;27;20035;-72
2022/12/08 05:49:19;;;;;;;1.40;0.60;;;;;;;;;;5130628;27;20039;-72
2022/12/08 05:51:45;;;;;;;3.33;0.95;;;;;;;;;;5128362;27;20099;-73
2022/12/08 05:54:11;;;;;;;4.15;0.80;;;;;;;;;;5128032;27;20039;-72
2022/12/08 05:56:37;;;;;;;3.17;0.93;;;;;;;;;;5125890;27;20127;-73
2022/12/08 05:59:07;;;;;;;2.40;1.00;;;;;;;;;;5101041;27;20115;-73
2022/12/08 06:01:33;;;;;;;2.85;0.80;;;;;;;;;;5108074;27;20397;-72
2022/12/08 06:04:00;;;;;;;2.70;1.63;;;;;;;;;;5130978;27;20456;-72
2022/12/08 06:06:27;;;;;;;4.00;1.15;;;;;;;;;;5102132;27;20039;-72
2022/12/08 06:08:53;;;;;;;5.28;1.70;;;;;;;;;;5127365;27;20047;-72
2022/12/08 06:11:20;;;;;;;4.43;1.15;;;;;;;;;;5113385;27;20480;-72
2022/12/08 06:13:49;;;;;;;3.13;1.20;;;;;;;;;;5127306;27;20516;-72
2022/12/08 06:16:15;;;;;;;3.10;0.93;;;;;;;;;;5120082;27;20122;-72
2022/12/08 06:18:41;;;;;;;2.45;0.98;;;;;;;;;;5126997;27;20043;-72
2022/12/08 06:21:09;;;;;;;2.53;1.23;;;;;;;;;;5123228;27;20489;-72
2022/12/08 06:23:35;;;;;;;3.05;1.02;;;;;;;;;;5117958;27;20111;-72
2022/12/08 06:26:02;;;;;;;4.18;1.30;;;;;;;;;;5124789;27;20122;-73
2022/12/08 06:28:29;;;;;;;3.75;1.30;;;;;;;;;;5119272;27;20537;-72
2022/12/08 06:30:56;;;;;;;2.38;1.15;;;;;;;;;;5109624;27;20054;-73
2022/12/08 06:33:25;;;;;;;1.52;1.00;;;;;;;;;;5123834;27;20032;-72
2022/12/08 06:35:51;;;;;;;2.38;1.25;;;;;;;;;;5127805;27;20092;-72
2022/12/08 06:38:17;;;;;;;2.35;1.05;;;;;;;;;;5116592;27;20037;-72
2022/12/08 06:40:44;;;;;;;5.90;1.30;;;;;;;;;;5118197;27;20100;-72
2022/12/08 06:43:10;;;;;;;3.10;1.30;;;;;;;;;;5126918;27;20071;-72
2022/12/08 06:45:36;;;;;;;3.00;1.15;;;;;;;;;;5113077;27;20400;-72
2022/12/08 06:48:02;;;;;;;5.88;1.65;;;;;;;;;;5124190;27;20035;-72
2022/12/08 06:50:28;;;;;;;6.18;1.85;;;;;;;;;;5122832;27;20556;-72
2022/12/08 06:52:54;;;;;;;3.70;1.38;;;;;;;;;;5109326;28;20040;-72
2022/12/08 06:55:21;;;;;;;6.53;1.67;;;;;;;;;;5123870;27;20259;-72
2022/12/08 06:57:47;;;;;;;4.22;1.63;;;;;;;;;;5122173;27;20134;-71
2022/12/08 07:00:13;;;;;;;4.50;1.30;;;;;;;;;;5123568;27;20039;-71
2022/12/08 07:02:41;;;;;;;9.05;1.98;;;;;;;;;;5122086;27;20039;-72
2022/12/08 07:05:07;;;;;;;7.00;2.03;;;;;;;;;;5124670;27;20199;-72
2022/12/08 07:07:33;;;;;;;4.45;1.27;;;;;;;;;;5130691;27;20043;-71
2022/12/08 07:09:59;;;;;;;4.57;1.55;;;;;;;;;;5120552;27;20040;-71
2022/12/08 07:12:26;;;;;;;2.45;1.00;;;;;;;;;;5125066;27;20046;-71
2022/12/08 07:14:52;;;;;;;8.82;1.75;;;;;;;;;;5125445;27;20074;-71
2022/12/08 07:17:18;;;;;;;27.02;2.25;;;;;;;;;;5116032;27;20114;-72
2022/12/08 07:19:44;;;;;;;4.78;2.03;;;;;;;;;;5121975;27;20027;-71
2022/12/08 07:22:10;;;;;;;4.82;1.23;;;;;;;;;;5130259;27;20066;-71
2022/12/08 07:24:36;;;;;;;3.72;1.15;;;;;;;;;;5114331;27;20034;-72
2022/12/08 07:27:02;;;;;;;7.47;1.63;;;;;;;;;;5118022;27;20122;-72
2022/12/08 07:29:29;;;;;;;2.85;1.23;;;;;;;;;;5120012;27;20407;-71
2022/12/08 07:31:55;;;;;;;4.07;1.35;;;;;;;;;;5128776;27;20035;-72
2022/12/08 07:34:21;;;;;;;4.35;1.70;;;;;;;;;;5124777;27;20039;-72
2022/12/08 07:36:47;;;;;;;8.98;1.85;;;;;;;;;;5121212;27;20043;-71
2022/12/08 07:39:13;;;;;;;3.08;1.80;;;;;;;;;;5121705;27;20081;-72
2022/12/08 07:41:39;;;;;;;7.32;1.80;;;;;;;;;;5127795;27;20103;-72
2022/12/08 07:44:05;;;;;;;4.95;1.50;;;;;;;;;;5122752;27;20047;-72
2022/12/08 07:46:31;;;;;;;4.90;1.65;;;;;;;;;;5110122;27;20476;-72
2022/12/08 07:48:58;;;;;;;10.25;2.33;;;;;;;;;;5131253;27;20046;-72
2022/12/08 07:51:25;;;;;;;3.58;1.35;;;;;;;;;;5106504;27;20161;-71
2022/12/08 07:53:51;;;;;;;5.70;1.98;;;;;;;;;;5102517;28;20493;-70
2022/12/08 07:56:17;;;;;;;3.63;1.60;;;;;;;;;;5122516;27;20035;-72
2022/12/08 07:58:45;;;;;;;4.50;1.35;;;;;;;;;;5102676;27;20035;-72
2022/12/08 08:01:19;;;;;;;3.05;1.27;;;;;;;;;;5121792;27;20039;-72
2022/12/08 08:03:45;;;;;;;4.30;1.33;;;;;;;;;;5121275;27;20443;-72
2022/12/08 08:06:11;;;;;;;2.85;1.20;;;;;;;;;;5124741;27;20122;-72
2022/12/08 08:08:37;;;;;;;5.15;1.83;;;;;;;;;;5123734;27;20203;-72
2022/12/08 08:11:06;;;;;;;3.30;1.35;;;;;;;;;;5120156;27;20043;-72
2022/12/08 08:13:32;;;;;;;8.77;2.42;;;;;;;;;;5120100;27;20035;-72
2022/12/08 08:16:05;;;;;;;2.72;1.17;;;;;;;;;;5124600;27;20043;-72
2022/12/08 08:18:32;;;;;;;4.00;1.73;;;;;;;;;;5125462;27;20085;-72
2022/12/08 08:20:58;;;;;;;3.40;1.33;;;;;;;;;;5100737;28;20100;-72
2022/12/08 08:23:24;;;;;;;7.03;1.75;;;;;;;;;;5124387;27;20814;-72
2022/12/08 08:25:50;;;;;;;2.08;0.82;;;;;;;;;;5103089;28;20067;-72
2022/12/08 08:28:16;;;;;;;4.10;1.50;;;;;;;;;;5100580;28;20883;-72
2022/12/08 08:30:42;;;;;;;3.55;1.27;;;;;;;;;;5126557;28;20039;-71
2022/12/08 08:33:08;;;;;;;3.00;1.15;;;;;;;;;;5126378;27;20073;-72
2022/12/08 08:35:35;;;;;;;9.10;1.45;;;;;;;;;;5108106;28;20386;-72
2022/12/08 08:38:01;;;;;;;1.70;1.15;;;;;;;;;;5122528;27;20055;-72
2022/12/08 08:40:27;;;;;;;2.40;1.08;;;;;;;;;;5111792;27;20047;-72
2022/12/08 08:42:53;;;;;;;6.10;1.30;;;;;;;;;;5126651;27;20126;-72
2022/12/08 08:45:19;;;;;;;2.17;1.13;;;;;;;;;;5108649;27;20348;-72
2022/12/08 08:47:45;;;;;;;4.10;1.70;;;;;;;;;;5128201;27;20100;-73
2022/12/08 08:50:11;;;;;;;3.42;1.40;;;;;;;;;;5131185;27;20071;-73
2022/12/08 08:52:38;;;;;;;5.50;1.48;;;;;;;;;;5127925;27;20047;-72
2022/12/08 08:55:04;;;;;;;4.57;1.45;;;;;;;;;;5128369;27;20477;-72
2022/12/08 08:57:30;;;;;;;5.30;1.70;;;;;;;;;;5130387;27;20508;-73
2022/12/08 08:59:56;;;;;;;4.38;1.83;;;;;;;;;;5130880;27;20115;-73
2022/12/08 09:02:23;;;;;;;6.80;1.95;;;;;;;;;;5112190;27;20047;-73
2022/12/08 09:04:49;;;;;;;2.90;1.88;;;;;;;;;;5127462;27;20039;-73
2022/12/08 09:07:15;;;;;;;6.82;1.65;;;;;;;;;;5127883;27;20084;-72
2022/12/08 09:09:41;;;;;;;3.83;2.03;;;;;;;;;;5126447;27;20115;-72
2022/12/08 09:12:08;;;;;;;3.45;1.25;;;;;;;;;;5126305;27;20080;-72
2022/12/08 09:14:34;;;;;;;4.35;1.25;;;;;;;;;;5128235;27;20043;-72
2022/12/08 09:17:00;;;;;;;4.45;2.20;;;;;;;;;;5129106;27;20039;-72
2022/12/08 09:19:26;;;;;;;3.42;1.48;;;;;;;;;;5132261;27;20039;-72
2022/12/08 09:21:52;;;;;;;7.07;2.70;;;;;;;;;;5111426;27;20175;-72
2022/12/08 09:24:19;;;;;;;3.92;2.13;;;;;;;;;;5129160;27;20401;-73
2022/12/08 09:26:45;;;;;;;5.78;1.80;;;;;;;;;;5114234;27;20043;-73
2022/12/08 09:29:13;;;;;;;3.85;1.40;;;;;;;;;;5112619;27;20533;-72
2022/12/08 09:31:39;;;;;;;3.58;1.63;;;;;;;;;;5110333;27;20100;-73
2022/12/08 09:34:06;;;;;;;5.53;1.50;;;;;;;;;;5122411;27;20400;-73
2022/12/08 09:36:32;;;;;;;7.22;1.77;;;;;;;;;;5129509;27;20088;-73
2022/12/08 09:38:58;;;;;;;4.82;2.15;;;;;;;;;;5127171;27;20458;-73
2022/12/08 09:41:36;;;;;;;6.57;1.75;;;;;;;;;;5112028;27;20118;-72
2022/12/08 09:44:23;;;;;;;9.20;1.98;;;;;;;;;;5125072;27;20039;-73
2022/12/08 09:46:51;;;;;;;2.78;1.58;;;;;;;;;;5122566;27;20576;-73
2022/12/08 09:49:20;;;;;;;4.70;1.40;;;;;;;;;;5128315;27;20043;-73
2022/12/08 09:51:46;;;;;;;1.83;1.23;;;;;;;;;;5128057;27;20054;-73
2022/12/08 09:54:12;;;;;;;4.45;1.75;;;;;;;;;;5108286;27;20031;-73
2022/12/08 09:56:38;;;;;;;6.90;1.98;;;;;;;;;;5123415;27;20120;-73
2022/12/08 09:59:04;;;;;;;4.78;1.90;;;;;;;;;;5110433;27;20118;-73
2022/12/08 10:01:31;;;;;;;4.72;1.67;;;;;;;;;;5093922;27;20439;-73
2022/12/08 10:03:57;;;;;;;4.70;1.67;;;;;;;;;;5110581;27;20035;-74
2022/12/08 10:06:38;;;;;;;5.50;1.60;;;;;;;;;;5112035;27;20077;-74
2022/12/08 10:09:22;;;;;;;4.93;2.13;;;;;;;;;;5128621;27;20047;-74
2022/12/08 10:12:07;;;;;;;7.20;2.95;;;;;;;;;;5128507;27;20073;-74
2022/12/08 10:14:37;;;;;;;5.47;1.90;;;;;;;;;;5124192;27;20046;-74
2022/12/08 10:17:09;;;;;;;8.27;2.17;;;;;;;;;;5112516;27;20091;-74
2022/12/08 10:19:36;;;;;;;5.05;2.45;;;;;;;;;;5127696;27;20031;-74
2022/12/08 10:22:05;;;;;;;5.15;1.73;;;;;;;;;;5125879;27;20034;-74
2022/12/08 10:24:36;;;;;;;6.05;1.60;;;;;;;;;;5100555;28;20490;-73
2022/12/08 10:27:02;;;;;;;2.85;1.52;;;;;;;;;;5110418;27;20039;-73
2022/12/08 10:29:28;;;;;;;5.57;1.63;;;;;;;;;;5126934;27;20027;-74
2022/12/08 10:31:58;;;;;;;4.50;1.40;;;;;;;;;;5127594;27;20046;-73
2022/12/08 10:34:25;;;;;;;5.28;1.75;;;;;;;;;;5121269;27;20081;-73
2022/12/08 10:36:51;;;;;;;6.43;2.00;;;;;;;;;;5121410;27;20048;-73
2022/12/08 10:39:31;;;;;;;5.20;2.00;;;;;;;;;;5126804;27;20039;-72
2022/12/08 10:42:02;;;;;;;3.08;1.92;;;;;;;;;;5106884;27;20040;-73
2022/12/08 10:44:28;;;;;;;13.60;2.45;;;;;;;;;;5120019;27;20054;-73
2022/12/08 10:46:54;;;;;;;3.20;1.95;;;;;;;;;;5129629;27;20050;-73
2022/12/08 10:49:31;;;;;;;6.75;2.42;;;;;;;;;;5127457;27;20167;-73
2022/12/08 10:51:57;;;;;;;5.00;2.13;;;;;;;;;;5108478;27;20050;-73
2022/12/08 10:54:36;;;;;;;5.85;2.70;;;;;;;;;;5107110;27;20039;-72
2022/12/08 10:57:02;;;;;;;5.18;1.98;;;;;;;;;;5124622;27;20549;-74
2022/12/08 10:59:28;;;;;;;3.88;2.00;;;;;;;;;;5104202;28;20450;-73
2022/12/08 11:01:55;;;;;;;6.40;2.58;;;;;;;;;;5127421;27;20045;-74
2022/12/08 11:04:23;;;;;;;4.65;2.42;;;;;;;;;;5125259;27;20106;-74
2022/12/08 11:06:50;;;;;;;6.47;2.33;;;;;;;;;;5116149;27;20044;-74
2022/12/08 11:09:19;;;;;;;7.78;2.30;;;;;;;;;;5124676;27;20083;-74
2022/12/08 11:11:50;;;;;;;4.22;2.28;;;;;;;;;;5121667;27;20043;-74
2022/12/08 11:14:27;;;;;;;9.32;2.90;;;;;;;;;;5103426;28;20059;-74
2022/12/08 11:17:02;;;;;;;4.18;2.17;;;;;;;;;;5113397;27;20123;-74
2022/12/08 11:19:29;;;;;;;5.25;2.65;;;;;;;;;;5120885;27;20102;-74
2022/12/08 11:21:55;;;;;;;7.70;2.42;;;;;;;;;;5125343;27;20511;-74
2022/12/08 11:24:26;;;;;;;5.72;2.75;;;;;;;;;;5119624;27;20043;-74
2022/12/08 11:26:52;;;;;;;4.72;1.95;;;;;;;;;;5109474;27;20150;-73
2022/12/08 11:29:19;;;;;;;7.57;1.90;;;;;;;;;;5121300;27;20439;-73
2022/12/08 11:32:08;;;;;;;5.05;1.80;;;;;;;;;;5123121;27;20047;-73
2022/12/08 11:34:41;;;;;;;4.97;1.83;;;;;;;;;;5105530;27;20047;-74
2022/12/08 11:37:14;;;;;;;6.65;1.83;;;4.30;99.90;;;;;;5125632;27;20043;-73
2022/12/08 11:39:46;;;;;;;11.13;3.35;;;5.30;99.90;;;;;;5103436;28;20528;-74
2022/12/08 11:42:17;;;;;;;3.17;1.50;;;5.30;99.90;;;;;;5081693;28;20040;-74
2022/12/08 11:44:52;;;;;;;4.15;1.80;;;5.20;99.90;;;;;;5090572;28;20044;-73
2022/12/08 11:47:30;;;;;;;7.28;1.70;;;5.10;99.90;;;;;;5081130;28;20038;-74
2022/12/08 11:50:06;;;;;;;4.07;1.50;;;;;;;;;;5087715;28;20035;-73
2022/12/08 11:52:34;;;;;;;6.78;2.28;;;;;;;;;;5085716;28;20398;-74
2022/12/08 11:55:20;;;;;;;7.88;1.40;;;;;;;;;;5090213;28;20091;-73
2022/12/08 11:57:48;;;;;;;3.90;1.38;;;;;;;;;;5084548;28;20037;-73
2022/12/08 12:00:16;;;;;;;9.75;2.00;;;;;;;;;;5086588;28;20040;-74
2022/12/08 12:02:44;;;;;;;5.50;1.38;;;;;;;;;;5078106;28;20047;-74
2022/12/08 12:05:29;;;;;;;3.28;2.00;;;;;;;;;;5091917;28;20038;-74
2022/12/08 12:07:58;;;;;;;1.98;0.90;;;;;;;;;;5075266;28;20047;-75
2022/12/08 12:10:43;;;;;;;2.08;1.27;;;;;;;;;;5088278;28;20039;-74
2022/12/08 12:13:17;;;;;;;2.97;0.90;;;;;;;;;;5087582;28;20050;-74
2022/12/08 12:16:05;;;;;;;3.95;1.52;;;;;;;;;;5081618;28;20083;-74
2022/12/08 12:18:45;;;;;;;4.03;1.63;;;5.00;99.90;;;;;;5086957;28;20114;-73
2022/12/08 12:21:30;;;;;;;4.93;1.60;;;6.90;99.90;;;;;;5092752;28;20059;-73
2022/12/08 12:24:17;;;;;;;6.00;1.73;;;6.50;99.90;;;;;;5085591;28;20123;-74
2022/12/08 12:26:58;;;;;;;2.55;1.23;;;;;;;;;;5081527;28;20048;-73
2022/12/08 12:29:26;;;;;;;3.40;1.80;;;;;;;;;;5082508;28;20036;-73
2022/12/08 12:31:58;;;;;;;4.85;1.73;;;;;;;;;;5094914;28;20152;-73
2022/12/08 12:34:26;;;;;;;4.40;2.13;;;;;;;;;;5065050;28;20039;-73
2022/12/08 12:36:52;;;;;;;10.48;1.55;;;;;;;;;;5091835;28;20509;-73
2022/12/08 12:39:20;;;;;;;3.33;1.60;;;;;;;;;;5094530;28;20214;-74
2022/12/08 12:41:49;;;;;;;2.55;1.30;;;;;;;;;;5124948;28;20500;-73
2022/12/08 12:44:21;;;;;;;2.97;1.85;;;;;;;;;;5109482;28;20393;-73
2022/12/08 12:46:47;;;;;;;3.40;1.60;;;;;;;;;;5104247;28;20118;-73
2022/12/08 12:49:32;;;;;;;4.82;1.50;;;;;;;;;;5118917;28;20036;-73
2022/12/08 12:51:58;;;;;;;3.45;1.60;;;;;;;;;;5128523;28;20039;-74
2022/12/08 12:54:25;;;;;;;2.60;1.40;;;;;;;;;;5106514;28;20415;-73
2022/12/08 12:57:04;;;;;;;1.95;1.38;;;;;;;;;;5100677;28;20493;-73
2022/12/08 12:59:33;;;;;;;2.90;1.33;;;;;;;;;;5117620;28;20036;-73
2022/12/08 13:02:01;;;;;;;2.83;1.60;;;;;;;;;;5123383;28;20505;-73
2022/12/08 13:04:32;;;;;;;2.30;1.10;;;;;;;;;;5120676;28;20346;-74
2022/12/08 13:06:58;;;;;;;3.72;1.60;;;;;;;;;;5122756;28;20603;-73
2022/12/08 13:09:27;;;;;;;4.20;1.40;;;;;;;;;;5121240;28;20035;-73
2022/12/08 13:11:55;;;;;;;3.45;1.75;;;;;;;;;;5124022;28;20046;-73
2022/12/08 13:14:28;;;;;;;5.88;1.70;;;;;;;;;;5118609;28;20028;-73
2022/12/08 13:16:57;;;;;;;2.90;1.65;;;;;;;;;;5108553;28;20160;-73
2022/12/08 13:19:23;;;;;;;2.05;1.10;;;;;;;;;;5123333;28;20043;-73
2022/12/08 13:21:49;;;;;;;3.03;1.60;;;;;;;;;;5121641;28;20144;-73
2022/12/08 13:24:31;;;;;;;3.03;1.42;;;6.20;99.90;;;;;;5121843;28;20719;-72
2022/12/08 13:27:03;;;;;;;3.80;1.55;;;;;;;;;;5121514;27;20286;-73
2022/12/08 13:29:33;;;;;;;5.45;2.58;;;;;;;;;;5122544;27;20088;-73
2022/12/08 13:32:03;;;;;;;4.53;2.50;;;;;;;;;;5126625;27;20050;-73
2022/12/08 13:34:32;;;;;;;5.25;2.22;;;;;;;;;;5129054;27;20092;-73
2022/12/08 13:37:04;;;;;;;3.20;1.30;;;;;;;;;;5127500;27;20146;-72
2022/12/08 13:39:40;;;;;;;4.32;1.92;;;;;;;;;;5097731;28;20096;-73
2022/12/08 13:42:12;;;;;;;3.90;1.88;;;;;;;;;;5113085;27;20035;-73
2022/12/08 13:44:47;;;;;;;5.22;2.25;;;;;;;;;;5126889;27;20485;-73
2022/12/08 13:47:15;;;;;;;2.63;1.75;;;;;;;;;;5122739;27;20054;-73
2022/12/08 13:49:58;;;;;;;3.17;1.77;;;;;;;;;;5130179;27;20068;-73
2022/12/08 13:52:50;;;;;;;2.20;1.15;;;;;;;;;;5102990;28;20078;-73
2022/12/08 13:55:20;;;;;;;4.63;2.20;;;;;;;;;;5087797;27;20046;-73
2022/12/08 13:57:49;;;;;;;4.03;1.85;;;;;;;;;;5113204;27;20095;-73
2022/12/08 14:00:21;;;;;;;4.78;1.75;;;4.90;99.90;;;;;;5110141;27;20039;-73
2022/12/08 14:02:52;;;;;;;11.18;1.70;;;;;;;;;;5127193;27;20496;-73
2022/12/08 14:05:20;;;;;;;3.45;1.40;;;;;;;;;;5125814;27;20114;-73
2022/12/08 14:07:51;;;;;;;6.00;1.75;;;;;;;;;;5125462;27;20039;-72
2022/12/08 14:10:23;;;;;;;6.97;1.67;;;;;;;;;;5122531;27;20039;-72
2022/12/08 14:12:55;;;;;;;3.15;1.60;;;;;;;;;;5111903;27;20138;-72
2022/12/08 14:15:21;;;;;;;2.75;1.40;;;6.10;99.90;;;;;;5128150;27;20047;-72
2022/12/08 14:17:55;;;;;;;4.80;2.05;;;5.40;99.90;;;;;;5110765;27;20082;-72
2022/12/08 14:20:22;;;;;;;4.15;1.58;;;;;;;;;;5129142;27;20484;-72
2022/12/08 14:22:49;;;;;;;1.45;1.00;;;;;;;;;;5125746;27;20474;-72
2022/12/08 14:25:16;;;;;;;4.85;1.55;;;;;;;;;;5111503;27;20041;-72
2022/12/08 14:27:42;;;;;;;5.97;2.22;;;;;;;;;;5127005;27;20043;-73
2022/12/08 14:30:14;;;;;;;3.08;1.45;;;;;;;;;;5127075;27;20043;-72
2022/12/08 14:32:51;;;;;;;2.70;1.10;;;;;;;;;;5110138;28;20082;-72
2022/12/08 14:35:20;;;;;;;2.80;1.38;;;;;;;;;;5111482;27;20043;-72
2022/12/08 14:37:50;;;;;;;4.55;1.40;;;;;;;;;;5108473;27;20088;-72
2022/12/08 14:40:19;;;;;;;4.25;1.23;;;;;;;;;;5107788;27;20612;-71
2022/12/08 14:42:45;;;;;;;4.78;1.60;;;;;;;;;;5108752;27;20038;-73
2022/12/08 14:45:13;;;;;;;2.28;1.40;;;;;;;;;;5103236;27;20031;-72
2022/12/08 14:47:39;;;;;;;1.75;1.23;;;;;;;;;;5103328;27;20133;-72
2022/12/08 14:50:25;;;;;;;2.63;1.10;;;;;;;;;;5121951;27;20089;-73
2022/12/08 14:52:52;;;;;;;2.22;1.30;;;;;;;;;;5123855;27;20053;-72
2022/12/08 14:55:18;;;;;;;2.45;1.38;;;;;;;;;;5107340;27;20051;-73